sensor_id;sensor_type;location;lat;lon;timestamp;pressure;altitude;pressure_sealevel;temperature;humidity
52469;BME280;38381;53.688;10.776;2023-01-29T00:00:28;102274.41;;;1.76;95.93
52469;BME280;38381;53.688;10.776;2023-01-29T00:05:29;102280.13;;;1.72;96.62
52469;BME280;38381;53.688;10.776;2023-01-29T00:10:29;102278.63;;;1.76;96.43
52469;BME280;38381;53.688;10.776;2023-01-29T00:15:30;102282.28;;;1.79;96.16
52469;BME280;38381;53.688;10.776;2023-01-29T00:20:30;102285.47;;;1.89;96.43
52469;BME280;38381;53.688;10.776;2023-01-29T00:25:31;102289.59;;;2.00;95.88
52469;BME280;38381;53.688;10.776;2023-01-29T00:30:31;102279.47;;;2.01;95.70
52469;BME280;38381;53.688;10.776;2023-01-29T00:35:32;102263.03;;;1.98;96.23
52469;BME280;38381;53.688;10.776;2023-01-29T00:40:36;102268.44;;;2.03;96.24
52469;BME280;38381;53.688;10.776;2023-01-29T00:45:56;102273.06;;;2.08;96.05
52469;BME280;38381;53.688;10.776;2023-01-29T00:50:57;102254.88;;;2.17;96.37
52469;BME280;38381;53.688;10.776;2023-01-29T00:55:57;102239.44;;;2.15;95.84
52469;BME280;38381;53.688;10.776;2023-01-29T01:00:58;102248.47;;;2.10;96.01
52469;BME280;38381;53.688;10.776;2023-01-29T01:06:05;102248.28;;;2.07;96.21
52469;BME280;38381;53.688;10.776;2023-01-29T01:11:06;102254.56;;;2.12;96.54
52469;BME280;38381;53.688;10.776;2023-01-29T01:16:13;102247.88;;;2.14;96.63
52469;BME280;38381;53.688;10.776;2023-01-29T01:21:13;102236.28;;;2.19;96.31
52469;BME280;38381;53.688;10.776;2023-01-29T01:26:13;102235.28;;;2.31;96.07
52469;BME280;38381;53.688;10.776;2023-01-29T01:31:14;102233.31;;;2.27;96.60
52469;BME280;38381;53.688;10.776;2023-01-29T01:36:14;102240.00;;;2.25;95.91
52469;BME280;38381;53.688;10.776;2023-01-29T01:41:18;102252.22;;;2.29;96.09
52469;BME280;38381;53.688;10.776;2023-01-29T01:46:19;102247.31;;;2.32;96.19
52469;BME280;38381;53.688;10.776;2023-01-29T01:51:23;102242.78;;;2.28;96.43
52469;BME280;38381;53.688;10.776;2023-01-29T01:56:29;102236.38;;;2.34;96.78
52469;BME280;38381;53.688;10.776;2023-01-29T02:01:38;102222.69;;;2.34;96.69
52469;BME280;38381;53.688;10.776;2023-01-29T02:06:42;102203.88;;;2.20;97.64
52469;BME280;38381;53.688;10.776;2023-01-29T02:12:05;102210.84;;;2.49;96.99
52469;BME280;38381;53.688;10.776;2023-01-29T02:17:07;102220.59;;;2.41;97.45
52469;BME280;38381;53.688;10.776;2023-01-29T02:28:00;102210.84;;;2.49;97.54
52469;BME280;38381;53.688;10.776;2023-01-29T02:33:22;102205.13;;;2.53;97.85
52469;BME280;38381;53.688;10.776;2023-01-29T02:44:15;102213.56;;;2.66;97.22
52469;BME280;38381;53.688;10.776;2023-01-29T02:49:33;102195.63;;;2.66;97.75
52469;BME280;38381;53.688;10.776;2023-01-29T02:54:43;102191.13;;;2.61;98.21
52469;BME280;38381;53.688;10.776;2023-01-29T02:59:50;102190.66;;;2.82;97.67
52469;BME280;38381;53.688;10.776;2023-01-29T03:04:59;102180.03;;;2.76;97.38
52469;BME280;38381;53.688;10.776;2023-01-29T03:10:26;102159.53;;;2.76;98.19
52469;BME280;38381;53.688;10.776;2023-01-29T03:15:27;102150.50;;;2.68;98.12
52469;BME280;38381;53.688;10.776;2023-01-29T03:20:32;102136.50;;;2.76;98.18
52469;BME280;38381;53.688;10.776;2023-01-29T03:25:35;102124.25;;;2.85;97.70
52469;BME280;38381;53.688;10.776;2023-01-29T03:31:00;102128.28;;;2.81;98.05
52469;BME280;38381;53.688;10.776;2023-01-29T03:36:43;102121.59;;;2.84;98.24
52469;BME280;38381;53.688;10.776;2023-01-29T03:41:56;102117.59;;;2.89;98.11
52469;BME280;38381;53.688;10.776;2023-01-29T03:47:40;102115.94;;;2.89;98.58
52469;BME280;38381;53.688;10.776;2023-01-29T03:52:52;102111.69;;;2.90;98.76
52469;BME280;38381;53.688;10.776;2023-01-29T03:58:08;102121.34;;;2.94;99.00
52469;BME280;38381;53.688;10.776;2023-01-29T04:03:19;102100.97;;;2.82;98.99
52469;BME280;38381;53.688;10.776;2023-01-29T04:08:25;102113.13;;;2.99;98.97
52469;BME280;38381;53.688;10.776;2023-01-29T04:13:29;102109.25;;;3.06;98.50
52469;BME280;38381;53.688;10.776;2023-01-29T04:18:33;102107.41;;;3.04;98.57
52469;BME280;38381;53.688;10.776;2023-01-29T04:23:33;102105.34;;;2.98;98.16
52469;BME280;38381;53.688;10.776;2023-01-29T04:34:28;102111.09;;;3.09;97.78
52469;BME280;38381;53.688;10.776;2023-01-29T04:39:39;102116.75;;;3.03;98.14
52469;BME280;38381;53.688;10.776;2023-01-29T04:44:53;102123.75;;;3.06;97.56
52469;BME280;38381;53.688;10.776;2023-01-29T04:55:44;102128.06;;;3.07;97.63
52469;BME280;38381;53.688;10.776;2023-01-29T05:00:48;102125.59;;;3.08;97.34
52469;BME280;38381;53.688;10.776;2023-01-29T05:05:54;102108.88;;;3.15;96.93
52469;BME280;38381;53.688;10.776;2023-01-29T05:10:56;102111.19;;;3.10;97.08
52469;BME280;38381;53.688;10.776;2023-01-29T05:16:08;102105.97;;;3.09;97.23
52469;BME280;38381;53.688;10.776;2023-01-29T05:21:09;102094.75;;;3.07;97.41
52469;BME280;38381;53.688;10.776;2023-01-29T05:26:10;102099.09;;;3.08;97.50
52469;BME280;38381;53.688;10.776;2023-01-29T05:31:29;102095.34;;;3.02;97.42
52469;BME280;38381;53.688;10.776;2023-01-29T05:36:29;102087.50;;;3.14;97.08
52469;BME280;38381;53.688;10.776;2023-01-29T05:41:30;102089.97;;;3.13;97.54
52469;BME280;38381;53.688;10.776;2023-01-29T05:46:30;102091.13;;;3.18;96.74
52469;BME280;38381;53.688;10.776;2023-01-29T05:51:31;102085.47;;;3.23;96.78
52469;BME280;38381;53.688;10.776;2023-01-29T05:56:32;102076.38;;;3.14;97.38
52469;BME280;38381;53.688;10.776;2023-01-29T06:01:32;102091.75;;;3.14;97.31
52469;BME280;38381;53.688;10.776;2023-01-29T06:06:33;102096.88;;;3.14;98.00
52469;BME280;38381;53.688;10.776;2023-01-29T06:11:33;102091.91;;;3.17;98.22
52469;BME280;38381;53.688;10.776;2023-01-29T06:16:34;102080.06;;;3.04;98.29
52469;BME280;38381;53.688;10.776;2023-01-29T06:21:34;102066.44;;;3.05;99.17
52469;BME280;38381;53.688;10.776;2023-01-29T06:26:35;102074.50;;;3.11;97.88
52469;BME280;38381;53.688;10.776;2023-01-29T06:31:35;102068.75;;;3.15;97.46
52469;BME280;38381;53.688;10.776;2023-01-29T06:36:37;102043.69;;;3.10;97.75
52469;BME280;38381;53.688;10.776;2023-01-29T06:41:37;102046.84;;;3.06;97.06
52469;BME280;38381;53.688;10.776;2023-01-29T06:46:37;102045.44;;;3.11;97.38
52469;BME280;38381;53.688;10.776;2023-01-29T06:51:38;102028.19;;;3.08;97.35
52469;BME280;38381;53.688;10.776;2023-01-29T06:56:38;102042.16;;;2.98;97.37
52469;BME280;38381;53.688;10.776;2023-01-29T07:01:39;102052.88;;;2.91;97.53
52469;BME280;38381;53.688;10.776;2023-01-29T07:06:43;102049.84;;;2.98;97.06
52469;BME280;38381;53.688;10.776;2023-01-29T07:11:43;102018.66;;;2.91;97.05
52469;BME280;38381;53.688;10.776;2023-01-29T07:16:44;102031.03;;;2.83;97.56
52469;BME280;38381;53.688;10.776;2023-01-29T07:21:44;102025.47;;;2.75;97.46
52469;BME280;38381;53.688;10.776;2023-01-29T07:26:45;102032.25;;;2.75;97.43
52469;BME280;38381;53.688;10.776;2023-01-29T07:31:45;102012.03;;;2.65;96.96
52469;BME280;38381;53.688;10.776;2023-01-29T07:36:45;102002.22;;;2.72;96.97
52469;BME280;38381;53.688;10.776;2023-01-29T07:41:46;102001.53;;;2.75;96.62
52469;BME280;38381;53.688;10.776;2023-01-29T07:46:46;102009.38;;;2.78;95.86
52469;BME280;38381;53.688;10.776;2023-01-29T07:51:46;101999.31;;;2.81;96.08
52469;BME280;38381;53.688;10.776;2023-01-29T07:56:47;101988.72;;;2.90;94.66
52469;BME280;38381;53.688;10.776;2023-01-29T08:01:47;101989.84;;;2.80;94.82
52469;BME280;38381;53.688;10.776;2023-01-29T08:06:48;101988.34;;;2.84;94.80
52469;BME280;38381;53.688;10.776;2023-01-29T08:11:48;101988.25;;;2.82;94.40
52469;BME280;38381;53.688;10.776;2023-01-29T08:16:49;101986.56;;;2.82;94.33
52469;BME280;38381;53.688;10.776;2023-01-29T08:21:49;101988.78;;;2.76;94.90
52469;BME280;38381;53.688;10.776;2023-01-29T08:26:49;101986.56;;;2.82;94.57
52469;BME280;38381;53.688;10.776;2023-01-29T08:31:50;101993.13;;;2.77;94.37
52469;BME280;38381;53.688;10.776;2023-01-29T08:36:50;101992.59;;;2.83;93.91
52469;BME280;38381;53.688;10.776;2023-01-29T08:41:52;101993.84;;;2.75;93.68
52469;BME280;38381;53.688;10.776;2023-01-29T08:46:52;101984.72;;;2.65;94.17
52469;BME280;38381;53.688;10.776;2023-01-29T08:51:53;101980.41;;;2.79;93.33
52469;BME280;38381;53.688;10.776;2023-01-29T08:56:55;101993.28;;;2.66;93.75
52469;BME280;38381;53.688;10.776;2023-01-29T09:01:56;101995.44;;;2.73;93.74
52469;BME280;38381;53.688;10.776;2023-01-29T09:06:56;101988.00;;;2.77;93.33
52469;BME280;38381;53.688;10.776;2023-01-29T09:11:57;101998.59;;;2.84;92.96
52469;BME280;38381;53.688;10.776;2023-01-29T09:16:57;101994.19;;;2.81;93.20
52469;BME280;38381;53.688;10.776;2023-01-29T09:21:58;101983.22;;;2.84;93.21
52469;BME280;38381;53.688;10.776;2023-01-29T09:26:58;101978.56;;;2.91;92.94
52469;BME280;38381;53.688;10.776;2023-01-29T09:31:58;101981.09;;;2.76;93.54
52469;BME280;38381;53.688;10.776;2023-01-29T09:36:59;101972.53;;;2.91;92.88
52469;BME280;38381;53.688;10.776;2023-01-29T09:42:20;101958.34;;;2.81;94.26
52469;BME280;38381;53.688;10.776;2023-01-29T09:47:25;101949.75;;;2.95;94.26
52469;BME280;38381;53.688;10.776;2023-01-29T09:52:32;101948.06;;;2.96;94.17
52469;BME280;38381;53.688;10.776;2023-01-29T09:57:43;101940.28;;;2.94;94.95
52469;BME280;38381;53.688;10.776;2023-01-29T10:03:17;101919.00;;;2.95;95.27
52469;BME280;38381;53.688;10.776;2023-01-29T10:13:51;101892.03;;;3.02;95.16
52469;BME280;38381;53.688;10.776;2023-01-29T10:19:06;101883.75;;;2.91;95.39
52469;BME280;38381;53.688;10.776;2023-01-29T10:29:40;101863.94;;;3.04;95.95
52469;BME280;38381;53.688;10.776;2023-01-29T10:39:44;101864.84;;;2.89;95.76
52469;BME280;38381;53.688;10.776;2023-01-29T11:00:39;101859.03;;;3.08;96.17
52469;BME280;38381;53.688;10.776;2023-01-29T11:15:59;101831.91;;;3.12;96.36
52469;BME280;38381;53.688;10.776;2023-01-29T11:21:02;101837.03;;;3.12;96.66
52469;BME280;38381;53.688;10.776;2023-01-29T11:26:03;101828.44;;;3.11;96.69
52469;BME280;38381;53.688;10.776;2023-01-29T11:31:35;101830.88;;;3.25;96.36
52469;BME280;38381;53.688;10.776;2023-01-29T11:36:38;101819.97;;;3.29;96.59
52469;BME280;38381;53.688;10.776;2023-01-29T11:41:57;101807.31;;;3.32;96.11
52469;BME280;38381;53.688;10.776;2023-01-29T11:47:11;101791.94;;;3.32;95.99
52469;BME280;38381;53.688;10.776;2023-01-29T11:52:24;101779.28;;;3.18;96.81
52469;BME280;38381;53.688;10.776;2023-01-29T11:57:29;101759.66;;;3.35;96.12
52469;BME280;38381;53.688;10.776;2023-01-29T12:02:37;101751.00;;;3.33;95.88
52469;BME280;38381;53.688;10.776;2023-01-29T12:07:55;101738.50;;;3.23;95.82
52469;BME280;38381;53.688;10.776;2023-01-29T12:18:25;101726.22;;;3.34;95.90
52469;BME280;38381;53.688;10.776;2023-01-29T12:23:55;101722.22;;;3.39;95.66
52469;BME280;38381;53.688;10.776;2023-01-29T12:34:36;101709.00;;;3.48;94.34
52469;BME280;38381;53.688;10.776;2023-01-29T12:39:42;101708.53;;;3.38;95.11
52469;BME280;38381;53.688;10.776;2023-01-29T12:44:46;101698.97;;;3.36;94.29
52469;BME280;38381;53.688;10.776;2023-01-29T12:49:51;101691.78;;;3.29;94.38
52469;BME280;38381;53.688;10.776;2023-01-29T12:55:00;101687.53;;;3.29;94.74
52469;BME280;38381;53.688;10.776;2023-01-29T13:00:27;101680.28;;;3.55;93.92
52469;BME280;38381;53.688;10.776;2023-01-29T13:05:38;101662.53;;;3.41;93.98
52469;BME280;38381;53.688;10.776;2023-01-29T13:10:44;101653.94;;;3.07;94.92
52469;BME280;38381;53.688;10.776;2023-01-29T13:15:48;101650.34;;;3.37;94.38
52469;BME280;38381;53.688;10.776;2023-01-29T13:20:49;101651.16;;;3.36;94.49
52469;BME280;38381;53.688;10.776;2023-01-29T13:25:53;101640.97;;;3.38;93.89
52469;BME280;38381;53.688;10.776;2023-01-29T13:31:15;101628.44;;;3.44;93.76
52469;BME280;38381;53.688;10.776;2023-01-29T13:36:20;101626.00;;;3.29;94.03
52469;BME280;38381;53.688;10.776;2023-01-29T13:41:31;101620.41;;;3.36;93.11
52469;BME280;38381;53.688;10.776;2023-01-29T13:46:32;101620.06;;;3.47;93.22
52469;BME280;38381;53.688;10.776;2023-01-29T13:51:35;101612.72;;;3.36;93.60
52469;BME280;38381;53.688;10.776;2023-01-29T14:06:50;101591.97;;;3.50;92.19
52469;BME280;38381;53.688;10.776;2023-01-29T14:11:51;101583.84;;;3.58;91.29
52469;BME280;38381;53.688;10.776;2023-01-29T14:16:59;101570.72;;;3.52;91.46
52469;BME280;38381;53.688;10.776;2023-01-29T14:22:01;101558.22;;;3.40;91.69
52469;BME280;38381;53.688;10.776;2023-01-29T14:27:02;101550.00;;;3.48;91.03
52469;BME280;38381;53.688;10.776;2023-01-29T14:42:33;101526.31;;;3.35;90.56
52469;BME280;38381;53.688;10.776;2023-01-29T14:52:41;101518.47;;;3.50;91.12
52469;BME280;38381;53.688;10.776;2023-01-29T14:57:42;101512.47;;;3.50;90.32
52469;BME280;38381;53.688;10.776;2023-01-29T15:02:43;101506.78;;;3.37;90.76
52469;BME280;38381;53.688;10.776;2023-01-29T15:07:54;101506.47;;;3.31;90.82
52469;BME280;38381;53.688;10.776;2023-01-29T15:12:57;101506.69;;;3.36;90.65
52469;BME280;38381;53.688;10.776;2023-01-29T15:18:11;101503.50;;;3.22;91.03
52469;BME280;38381;53.688;10.776;2023-01-29T15:23:40;101492.72;;;3.29;90.84
52469;BME280;38381;53.688;10.776;2023-01-29T15:28:42;101490.00;;;3.26;90.74
52469;BME280;38381;53.688;10.776;2023-01-29T15:33:45;101482.81;;;3.19;91.15
52469;BME280;38381;53.688;10.776;2023-01-29T15:38:47;101470.53;;;3.12;91.51
52469;BME280;38381;53.688;10.776;2023-01-29T15:43:56;101469.22;;;3.20;90.97
52469;BME280;38381;53.688;10.776;2023-01-29T15:48:59;101461.00;;;3.09;91.78
52469;BME280;38381;53.688;10.776;2023-01-29T15:54:13;101453.44;;;2.94;92.19
52469;BME280;38381;53.688;10.776;2023-01-29T15:59:42;101440.81;;;2.97;92.19
52469;BME280;38381;53.688;10.776;2023-01-29T16:04:41;101434.13;;;3.01;91.46
52469;BME280;38381;53.688;10.776;2023-01-29T16:09:42;101418.75;;;3.01;91.34
52469;BME280;38381;53.688;10.776;2023-01-29T16:14:43;101421.25;;;2.99;91.79
52469;BME280;38381;53.688;10.776;2023-01-29T16:19:54;101419.34;;;2.95;92.12
52469;BME280;38381;53.688;10.776;2023-01-29T16:24:54;101415.53;;;2.87;91.73
52469;BME280;38381;53.688;10.776;2023-01-29T16:29:55;101415.88;;;2.59;92.13
52469;BME280;38381;53.688;10.776;2023-01-29T16:34:59;101409.97;;;2.78;92.60
52469;BME280;38381;53.688;10.776;2023-01-29T16:39:59;101415.44;;;2.68;92.83
52469;BME280;38381;53.688;10.776;2023-01-29T16:45:00;101393.94;;;2.82;92.36
52469;BME280;38381;53.688;10.776;2023-01-29T16:50:23;101391.81;;;2.91;92.28
52469;BME280;38381;53.688;10.776;2023-01-29T16:55:31;101396.06;;;2.73;92.89
52469;BME280;38381;53.688;10.776;2023-01-29T17:00:34;101367.38;;;2.80;92.68
52469;BME280;38381;53.688;10.776;2023-01-29T17:05:35;101374.84;;;2.75;91.91
52469;BME280;38381;53.688;10.776;2023-01-29T17:10:36;101377.81;;;2.85;91.89
52469;BME280;38381;53.688;10.776;2023-01-29T17:20:42;101343.81;;;2.69;93.16
52469;BME280;38381;53.688;10.776;2023-01-29T17:25:42;101336.06;;;2.68;93.19
52469;BME280;38381;53.688;10.776;2023-01-29T17:30:43;101319.91;;;2.69;93.04
52469;BME280;38381;53.688;10.776;2023-01-29T17:35:44;101315.06;;;2.57;93.48
52469;BME280;38381;53.688;10.776;2023-01-29T17:45:54;101292.88;;;2.57;93.45
52469;BME280;38381;53.688;10.776;2023-01-29T17:50:57;101298.88;;;2.58;93.14
52469;BME280;38381;53.688;10.776;2023-01-29T17:55:58;101291.72;;;2.69;93.00
52469;BME280;38381;53.688;10.776;2023-01-29T18:00:58;101286.44;;;2.48;93.62
52469;BME280;38381;53.688;10.776;2023-01-29T18:05:59;101266.25;;;2.72;93.00
52469;BME280;38381;53.688;10.776;2023-01-29T18:10:59;101262.91;;;2.37;93.80
52469;BME280;38381;53.688;10.776;2023-01-29T18:16:00;101243.72;;;2.65;93.28
52469;BME280;38381;53.688;10.776;2023-01-29T18:21:00;101228.50;;;2.68;92.78
52469;BME280;38381;53.688;10.776;2023-01-29T18:26:01;101218.53;;;2.74;92.79
52469;BME280;38381;53.688;10.776;2023-01-29T18:31:02;101214.44;;;2.77;92.36
52469;BME280;38381;53.688;10.776;2023-01-29T18:36:03;101196.50;;;2.40;94.73
52469;BME280;38381;53.688;10.776;2023-01-29T18:41:06;101200.25;;;2.66;93.54
52469;BME280;38381;53.688;10.776;2023-01-29T18:46:09;101182.78;;;2.57;93.22
52469;BME280;38381;53.688;10.776;2023-01-29T18:51:10;101180.22;;;2.57;93.45
52469;BME280;38381;53.688;10.776;2023-01-29T18:56:11;101183.19;;;2.47;93.95
52469;BME280;38381;53.688;10.776;2023-01-29T19:01:12;101163.28;;;2.41;93.94
52469;BME280;38381;53.688;10.776;2023-01-29T19:06:13;101161.53;;;2.40;94.00
52469;BME280;38381;53.688;10.776;2023-01-29T19:11:13;101150.63;;;2.45;93.09
52469;BME280;38381;53.688;10.776;2023-01-29T19:16:14;101155.84;;;2.46;93.94
52469;BME280;38381;53.688;10.776;2023-01-29T19:21:15;101131.47;;;2.54;92.83
52469;BME280;38381;53.688;10.776;2023-01-29T19:26:16;101118.78;;;2.57;93.12
52469;BME280;38381;53.688;10.776;2023-01-29T19:31:16;101122.75;;;2.51;93.02
52469;BME280;38381;53.688;10.776;2023-01-29T19:36:16;101099.03;;;2.55;92.33
52469;BME280;38381;53.688;10.776;2023-01-29T19:41:17;101109.63;;;2.25;93.36
52469;BME280;38381;53.688;10.776;2023-01-29T19:46:17;101108.16;;;2.48;92.28
52469;BME280;38381;53.688;10.776;2023-01-29T19:51:18;101093.19;;;2.38;92.87
52469;BME280;38381;53.688;10.776;2023-01-29T19:56:18;101072.69;;;2.57;91.91
52469;BME280;38381;53.688;10.776;2023-01-29T20:01:19;101068.13;;;2.50;91.66
52469;BME280;38381;53.688;10.776;2023-01-29T20:06:25;101060.91;;;2.41;92.41
52469;BME280;38381;53.688;10.776;2023-01-29T20:11:26;101054.72;;;2.36;92.12
52469;BME280;38381;53.688;10.776;2023-01-29T20:16:26;101047.16;;;2.39;92.17
52469;BME280;38381;53.688;10.776;2023-01-29T20:21:27;101055.06;;;2.44;91.97
52469;BME280;38381;53.688;10.776;2023-01-29T20:26:27;101029.22;;;2.39;92.16
52469;BME280;38381;53.688;10.776;2023-01-29T20:31:28;101020.97;;;2.45;92.55
52469;BME280;38381;53.688;10.776;2023-01-29T20:36:28;101017.53;;;2.45;92.63
52469;BME280;38381;53.688;10.776;2023-01-29T20:41:28;101006.28;;;2.41;92.87
52469;BME280;38381;53.688;10.776;2023-01-29T20:46:29;100999.28;;;2.37;93.09
52469;BME280;38381;53.688;10.776;2023-01-29T20:51:29;100994.16;;;2.37;93.62
52469;BME280;38381;53.688;10.776;2023-01-29T20:56:30;100968.09;;;2.26;93.52
52469;BME280;38381;53.688;10.776;2023-01-29T21:01:30;100977.41;;;2.24;94.03
52469;BME280;38381;53.688;10.776;2023-01-29T21:06:30;100959.75;;;2.30;94.20
52469;BME280;38381;53.688;10.776;2023-01-29T21:11:31;100961.13;;;2.43;93.90
52469;BME280;38381;53.688;10.776;2023-01-29T21:16:32;100943.47;;;2.49;93.08
52469;BME280;38381;53.688;10.776;2023-01-29T21:21:33;100916.41;;;2.54;92.94
52469;BME280;38381;53.688;10.776;2023-01-29T21:26:34;100919.31;;;2.42;93.60
52469;BME280;38381;53.688;10.776;2023-01-29T21:31:37;100901.72;;;2.50;93.25
52469;BME280;38381;53.688;10.776;2023-01-29T21:36:38;100904.81;;;2.43;93.51
52469;BME280;38381;53.688;10.776;2023-01-29T21:41:38;100901.59;;;2.47;92.95
52469;BME280;38381;53.688;10.776;2023-01-29T21:47:03;100874.38;;;2.49;93.18
52469;BME280;38381;53.688;10.776;2023-01-29T21:52:14;100866.81;;;2.52;93.27
52469;BME280;38381;53.688;10.776;2023-01-29T21:57:15;100868.56;;;2.53;93.45
52469;BME280;38381;53.688;10.776;2023-01-29T22:02:15;100852.06;;;2.68;92.70
52469;BME280;38381;53.688;10.776;2023-01-29T22:07:16;100852.81;;;2.65;92.73
52469;BME280;38381;53.688;10.776;2023-01-29T22:12:16;100850.38;;;2.68;92.71
52469;BME280;38381;53.688;10.776;2023-01-29T22:17:17;100857.31;;;2.71;92.67
52469;BME280;38381;53.688;10.776;2023-01-29T22:22:19;100837.63;;;2.70;92.60
52469;BME280;38381;53.688;10.776;2023-01-29T22:27:19;100814.81;;;2.76;92.38
52469;BME280;38381;53.688;10.776;2023-01-29T22:32:20;100791.16;;;2.81;92.24
52469;BME280;38381;53.688;10.776;2023-01-29T22:37:20;100768.41;;;2.89;92.33
52469;BME280;38381;53.688;10.776;2023-01-29T22:42:21;100764.00;;;2.87;92.35
52469;BME280;38381;53.688;10.776;2023-01-29T22:47:21;100746.28;;;2.91;93.53
52469;BME280;38381;53.688;10.776;2023-01-29T22:52:21;100724.16;;;2.93;93.34
52469;BME280;38381;53.688;10.776;2023-01-29T22:57:22;100715.00;;;3.00;93.20
52469;BME280;38381;53.688;10.776;2023-01-29T23:02:22;100709.22;;;3.06;92.93
52469;BME280;38381;53.688;10.776;2023-01-29T23:07:23;100711.88;;;3.09;92.70
52469;BME280;38381;53.688;10.776;2023-01-29T23:12:23;100681.63;;;2.98;93.06
52469;BME280;38381;53.688;10.776;2023-01-29T23:17:24;100643.34;;;3.03;93.70
52469;BME280;38381;53.688;10.776;2023-01-29T23:22:24;100624.63;;;3.04;94.54
52469;BME280;38381;53.688;10.776;2023-01-29T23:27:25;100611.44;;;2.93;94.72
52469;BME280;38381;53.688;10.776;2023-01-29T23:32:25;100585.31;;;3.04;94.79
52469;BME280;38381;53.688;10.776;2023-01-29T23:37:25;100571.09;;;2.88;95.04
52469;BME280;38381;53.688;10.776;2023-01-29T23:42:26;100546.69;;;2.97;95.20
52469;BME280;38381;53.688;10.776;2023-01-29T23:47:26;100542.44;;;2.98;94.65
52469;BME280;38381;53.688;10.776;2023-01-29T23:52:26;100546.13;;;3.06;94.32
52469;BME280;38381;53.688;10.776;2023-01-29T23:57:27;100532.59;;;3.10;94.01
